Time;durP1;ratioP1;P1;durP2;ratioP2;P2;SDS_P1;SDS_P2;PMS_P1;PMS_P2;Temp;Humidity;BMP_temperature;BMP_pressure;BME280_temperature;BME280_humidity;BME280_pressure;Samples;Min_cycle;Max_cycle;Signal;HPM_P1;HPM_P2
2022/02/15 00:00:16;;;;;;;17.17;7.25;;;11.00;66.00;;;;;;6221141;28;20038;-70
2022/02/15 00:03:54;;;;;;;18.83;6.82;;;11.00;66.00;;;;;;6219072;28;20045;-69
2022/02/15 00:06:55;;;;;;;16.42;8.30;;;10.90;66.10;;;;;;6220677;28;20060;-70
2022/02/15 00:09:56;;;;;;;15.80;7.47;;;10.90;66.10;;;;;;6236513;28;20439;-69
2022/02/15 00:12:57;;;;;;;14.70;7.18;;;10.90;66.30;;;;;;6237071;28;20034;-69
2022/02/15 00:15:58;;;;;;;13.23;6.75;;;10.90;66.40;;;;;;6236881;28;20117;-69
2022/02/15 00:18:58;;;;;;;13.10;6.20;;;10.90;66.40;;;;;;6218205;28;20042;-70
2022/02/15 00:21:59;;;;;;;11.95;6.35;;;10.90;66.40;;;;;;6219235;28;20417;-69
2022/02/15 00:25:00;;;;;;;13.48;7.13;;;10.90;66.40;;;;;;6221396;28;20042;-70
2022/02/15 00:28:02;;;;;;;11.18;6.15;;;10.90;66.40;;;;;;6236845;28;20459;-70
2022/02/15 00:31:03;;;;;;;9.77;5.40;;;11.00;66.40;;;;;;6235553;28;20435;-70
2022/02/15 00:34:05;;;;;;;17.77;6.45;;;11.00;66.30;;;;;;6220923;28;20037;-69
2022/02/15 00:37:06;;;;;;;11.70;6.05;;;11.00;66.00;;;;;;6221489;28;20099;-70
2022/02/15 00:40:08;;;;;;;8.45;4.75;;;10.90;65.90;;;;;;6221577;28;20045;-70
2022/02/15 00:43:46;;;;;;;9.65;4.43;;;10.90;65.90;;;;;;6221452;28;20041;-69
2022/02/15 00:46:46;;;;;;;13.32;5.50;;;10.90;65.80;;;;;;6218964;28;20108;-70
2022/02/15 00:49:47;;;;;;;9.07;5.07;;;10.90;65.70;;;;;;6220206;28;20117;-70
2022/02/15 00:52:48;;;;;;;13.02;5.97;;;10.90;65.60;;;;;;6221285;28;20414;-70
2022/02/15 00:55:49;;;;;;;10.40;6.22;;;10.90;65.70;;;;;;6221278;28;20034;-70
2022/02/15 00:58:50;;;;;;;10.23;5.90;;;10.90;65.60;;;;;;6221188;28;20434;-70
2022/02/15 01:01:51;;;;;;;11.02;5.47;;;10.90;65.70;;;;;;6219228;28;20344;-70
2022/02/15 01:04:52;;;;;;;13.30;6.18;;;11.00;65.70;;;;;;6219448;28;20590;-70
2022/02/15 01:07:53;;;;;;;15.55;7.32;;;11.00;65.80;;;;;;6203686;28;20049;-70
2022/02/15 01:10:54;;;;;;;11.85;5.45;;;11.00;65.80;;;;;;6236002;28;20049;-70
2022/02/15 01:13:56;;;;;;;12.90;6.72;;;10.90;65.80;;;;;;6211634;28;20049;-70
2022/02/15 01:16:57;;;;;;;9.93;5.55;;;10.90;66.00;;;;;;6196666;28;20034;-70
2022/02/15 01:19:58;;;;;;;15.85;7.25;;;10.80;66.20;;;;;;6195341;28;20047;-70
2022/02/15 01:23:40;;;;;;;15.38;7.40;;;10.80;66.30;;;;;;6197223;28;20471;-70
2022/02/15 01:26:41;;;;;;;13.32;6.78;;;10.80;66.50;;;;;;6207985;28;20030;-70
2022/02/15 01:29:42;;;;;;;17.38;7.35;;;10.80;66.50;;;;;;6198896;28;20049;-70
2022/02/15 01:32:43;;;;;;;14.57;6.95;;;10.80;66.60;;;;;;6192854;28;20034;-70
2022/02/15 01:35:44;;;;;;;15.18;7.57;;;10.80;66.70;;;;;;6223134;28;20126;-70
2022/02/15 01:38:47;;;;;;;14.13;6.60;;;10.80;66.70;;;;;;6222933;28;20410;-70
2022/02/15 01:41:48;;;;;;;15.52;7.63;;;10.80;66.80;;;;;;6239671;28;20042;-70
2022/02/15 01:44:50;;;;;;;14.48;7.10;;;10.80;66.90;;;;;;6223690;28;20030;-70
2022/02/15 01:47:51;;;;;;;18.98;8.05;;;10.80;67.10;;;;;;6223114;28;20037;-69
2022/02/15 01:50:52;;;;;;;15.63;7.13;;;10.80;67.10;;;;;;6222973;28;20352;-70
2022/02/15 01:53:53;;;;;;;15.77;7.18;;;10.80;67.20;;;;;;6205652;28;20038;-70
2022/02/15 01:56:54;;;;;;;18.58;6.93;;;10.80;67.20;;;;;;6214703;28;20110;-70
2022/02/15 01:59:56;;;;;;;15.40;7.65;;;10.80;68.10;;;;;;6182261;28;20042;-70
2022/02/15 02:03:35;;;;;;;23.02;7.90;;;10.80;67.30;;;;;;6210311;28;20129;-70
2022/02/15 02:06:36;;;;;;;15.52;7.47;;;10.80;67.30;;;;;;6220870;28;20073;-70
2022/02/15 02:09:38;;;;;;;16.30;7.53;;;10.80;67.40;;;;;;6222450;28;20041;-70
2022/02/15 02:12:39;;;;;;;15.27;7.03;;;10.70;68.20;;;;;;6205901;28;20050;-70
2022/02/15 02:15:43;;;;;;;20.30;7.65;;;10.70;67.50;;;;;;6222179;28;20042;-70
2022/02/15 02:19:08;;;;;;;25.38;7.82;;;10.70;67.60;;;;;;6146102;28;20058;-70
2022/02/15 02:22:09;;;;;;;12.63;6.50;;;10.70;67.70;;;;;;6146064;28;20461;-70
2022/02/15 02:25:12;;;;;;;9.93;5.97;;;10.70;67.60;;;;;;6147069;28;20097;-70
2022/02/15 02:28:14;;;;;;;10.65;5.75;;;10.70;67.60;;;;;;6146774;28;20118;-70
2022/02/15 02:31:15;;;;;;;12.88;6.18;;;10.70;67.70;;;;;;6146905;29;20031;-70
2022/02/15 02:34:25;;;;;;;13.15;6.22;;;10.70;67.80;;;;;;6146982;28;20134;-70
2022/02/15 02:37:27;;;;;;;11.70;5.95;;;10.70;67.80;;;;;;6147955;28;20570;-70
2022/02/15 02:40:33;;;;;;;11.18;6.18;;;10.70;67.70;;;;;;6148019;28;20039;-70
2022/02/15 02:43:34;;;;;;;9.35;5.05;;;10.60;67.50;;;;;;6116154;28;20072;-70
2022/02/15 02:46:35;;;;;;;13.13;5.35;;;10.60;67.70;;;;;;6147809;28;20036;-70
2022/02/15 02:49:36;;;;;;;13.35;6.18;;;10.60;67.80;;;;;;6147883;28;20046;-70
2022/02/15 02:52:38;;;;;;;10.80;5.38;;;10.50;67.60;;;;;;6148107;28;20054;-70
2022/02/15 02:55:39;;;;;;;12.23;6.30;;;10.50;67.70;;;;;;6165405;28;20080;-70
2022/02/15 02:58:40;;;;;;;14.02;6.43;;;10.40;67.60;;;;;;6221157;28;20037;-70
2022/02/15 03:01:41;;;;;;;10.95;6.03;;;10.30;67.90;;;;;;6220709;28;20044;-70
2022/02/15 03:04:44;;;;;;;12.77;6.65;;;10.30;68.00;;;;;;6222272;28;20037;-70
2022/02/15 03:07:50;;;;;;;15.90;7.63;;;10.30;68.20;;;;;;6221445;28;20045;-70
2022/02/15 03:10:51;;;;;;;13.80;6.30;;;10.20;68.50;;;;;;6222201;28;20087;-70
2022/02/15 03:14:06;;;;;;;13.10;7.00;;;10.20;68.60;;;;;;6236571;28;20363;-70
2022/02/15 03:17:17;;;;;;;11.50;6.18;;;10.10;68.60;;;;;;6222933;28;20030;-70
2022/02/15 03:20:21;;;;;;;16.95;7.75;;;10.10;68.90;;;;;;6222795;28;20037;-70
2022/02/15 03:23:25;;;;;;;11.30;5.93;;;10.00;69.00;;;;;;6230880;28;20069;-70
2022/02/15 03:26:26;;;;;;;12.68;5.88;;;10.10;69.20;;;;;;6221347;28;20405;-70
2022/02/15 03:29:27;;;;;;;11.05;4.90;;;10.00;69.20;;;;;;6213783;28;20080;-70
2022/02/15 03:32:28;;;;;;;4.97;1.25;;;10.00;69.40;;;;;;6206036;28;20536;-70
2022/02/15 03:35:30;;;;;;;4.45;1.40;;;10.00;69.40;;;;;;6222897;28;20038;-70
2022/02/15 03:38:36;;;;;;;2.05;1.45;;;9.90;69.20;;;;;;6222689;28;20092;-69
2022/02/15 03:45:07;;;;;;;7.22;3.80;;;10.00;68.40;;;;;;6220287;28;20036;-72
2022/02/15 03:48:22;;;;;;;3.33;2.40;;;10.00;68.40;;;;;;6237709;28;20053;-71
2022/02/15 03:51:23;;;;;;;5.88;2.05;;;10.10;68.20;;;;;;6237790;28;20042;-71
2022/02/15 03:54:29;;;;;;;5.97;2.00;;;10.10;68.00;;;;;;6207693;28;20462;-71
2022/02/15 03:57:34;;;;;;;4.13;2.30;;;10.10;67.80;;;;;;6198034;28;20039;-71
2022/02/15 04:00:37;;;;;;;3.78;2.30;;;10.30;67.70;;;;;;6180502;28;20053;-71
2022/02/15 04:03:48;;;;;;;2.72;1.52;;;10.40;67.20;;;;;;6215133;28;20033;-71
2022/02/15 04:06:49;;;;;;;2.00;1.52;;;10.40;66.80;;;;;;6222241;28;20521;-71
2022/02/15 04:09:51;;;;;;;4.40;1.85;;;10.40;66.40;;;;;;6220959;28;20362;-71
2022/02/15 04:12:52;;;;;;;4.38;1.25;;;10.50;66.10;;;;;;6220781;28;20034;-72
2022/02/15 04:15:53;;;;;;;2.85;1.63;;;10.60;65.80;;;;;;6220717;28;20327;-71
2022/02/15 04:18:54;;;;;;;2.90;1.83;;;10.60;65.40;;;;;;6204008;28;20136;-71
2022/02/15 04:21:56;;;;;;;3.00;1.90;;;10.70;65.00;;;;;;6204440;28;20038;-71
2022/02/15 04:25:00;;;;;;;2.92;1.70;;;10.70;64.60;;;;;;6209647;28;20038;-71
2022/02/15 04:28:01;;;;;;;4.32;1.30;;;10.70;64.30;;;;;;6196282;28;20041;-71
2022/02/15 04:31:03;;;;;;;2.17;1.27;;;10.80;64.00;;;;;;6197537;28;20042;-71
2022/02/15 04:34:05;;;;;;;4.60;2.42;;;10.80;63.60;;;;;;6218400;28;20487;-71
2022/02/15 04:37:07;;;;;;;10.43;3.50;;;10.90;63.30;;;;;;6221175;28;20091;-72
2022/02/15 04:40:11;;;;;;;5.82;3.45;;;10.90;63.40;;;;;;6205612;28;20037;-72
2022/02/15 04:43:14;;;;;;;3.90;2.72;;;10.90;63.60;;;;;;6221731;28;20050;-71
2022/02/15 04:46:17;;;;;;;6.03;2.88;;;10.80;63.80;;;;;;6197059;28;20384;-72
2022/02/15 04:49:18;;;;;;;3.22;1.98;;;10.80;64.10;;;;;;6180781;28;20042;-72
2022/02/15 04:52:19;;;;;;;4.60;1.50;;;10.80;64.40;;;;;;6198360;28;20062;-70
2022/02/15 04:55:20;;;;;;;3.55;2.00;;;10.80;64.10;;;;;;6196672;28;20068;-68
2022/02/15 04:58:29;;;;;;;2.97;1.73;;;10.80;63.50;;;;;;6181842;28;20367;-67
2022/02/15 05:01:30;;;;;;;2.97;1.75;;;10.90;63.40;;;;;;6198464;28;20110;-68
2022/02/15 05:04:49;;;;;;;2.67;1.83;;;10.90;63.20;;;;;;6186457;28;20030;-69
2022/02/15 05:07:50;;;;;;;5.82;3.53;;;10.90;62.90;;;;;;6214240;28;20038;-67
2022/02/15 05:10:51;;;;;;;9.05;5.10;;;10.90;62.90;;;;;;6197889;28;20045;-70
2022/02/15 05:13:56;;;;;;;9.02;4.72;;;10.90;63.20;;;;;;6198675;28;20482;-68
2022/02/15 05:17:09;;;;;;;8.55;4.82;;;10.90;63.50;;;;;;6185415;28;20045;-68
2022/02/15 05:20:12;;;;;;;13.35;5.38;;;10.80;63.80;;;;;;6181030;28;20046;-68
2022/02/15 05:23:14;;;;;;;12.02;5.00;;;10.80;64.10;;;;;;6198318;28;20045;-68
2022/02/15 05:26:17;;;;;;;10.98;4.90;;;10.80;64.40;;;;;;6238349;28;20030;-68
2022/02/15 05:29:28;;;;;;;10.05;5.32;;;10.80;64.80;;;;;;6224020;28;20132;-68
2022/02/15 05:32:38;;;;;;;17.90;6.32;;;10.70;65.00;;;;;;6220567;28;20359;-68
2022/02/15 05:35:44;;;;;;;14.18;5.97;;;10.60;65.20;;;;;;6221890;28;20408;-68
2022/02/15 05:38:45;;;;;;;11.48;6.65;;;10.60;65.40;;;;;;6221660;28;20038;-68
2022/02/15 05:41:47;;;;;;;13.70;6.50;;;10.60;65.70;;;;;;6205532;28;20469;-69
2022/02/15 05:44:48;;;;;;;11.35;5.75;;;10.60;65.70;;;;;;6203492;28;20034;-69
2022/02/15 05:47:49;;;;;;;14.50;7.22;;;10.60;65.90;;;;;;6198971;28;20464;-68
2022/02/15 05:50:51;;;;;;;11.10;6.85;;;10.50;65.90;;;;;;6181092;28;20034;-69
2022/02/15 05:54:15;;;;;;;9.02;5.50;;;10.50;66.00;;;;;;6169984;28;20042;-69
2022/02/15 05:57:17;;;;;;;11.70;5.90;;;10.50;66.20;;;;;;6154732;28;20041;-68
2022/02/15 06:00:27;;;;;;;13.57;6.63;;;10.40;66.40;;;;;;6155181;28;20038;-67
2022/02/15 06:06:49;;;;;;;11.73;6.32;;;10.50;66.70;;;;;;6194898;28;20034;-68
2022/02/15 06:09:52;;;;;;;11.05;5.45;;;10.50;66.80;;;;;;6196364;28;20131;-68
2022/02/15 06:12:53;;;;;;;11.90;4.82;;;10.50;66.70;;;;;;6166398;28;20142;-70
2022/02/15 06:15:58;;;;;;;8.25;4.15;;;10.50;66.70;;;;;;6182111;28;20030;-69
2022/02/15 06:19:08;;;;;;;6.95;4.28;;;10.60;66.80;;;;;;6198208;28;20109;-69
2022/02/15 06:22:45;;;;;;;8.57;4.63;;;10.60;66.80;;;;;;6182851;28;20520;-69
2022/02/15 06:25:45;;;;;;;8.15;4.20;;;10.60;66.80;;;;;;6193082;28;20042;-69
2022/02/15 06:28:48;;;;;;;6.80;3.45;;;10.60;66.80;;;;;;6156995;28;20097;-71
2022/02/15 06:31:52;;;;;;;4.25;2.58;;;10.60;66.80;;;;;;6197354;28;20062;-70
2022/02/15 06:34:55;;;;;;;5.63;3.28;;;10.70;66.70;;;;;;6221494;28;20370;-70
2022/02/15 06:37:57;;;;;;;7.70;3.65;;;10.70;66.60;;;;;;6221575;28;20050;-68
2022/02/15 06:41:00;;;;;;;8.35;3.92;;;10.70;66.40;;;;;;6206737;28;20033;-68
2022/02/15 06:44:13;;;;;;;8.68;4.47;;;10.80;66.40;;;;;;6222196;28;20097;-69
2022/02/15 06:47:21;;;;;;;10.30;5.77;;;10.80;66.20;;;;;;6223133;28;20038;-68
2022/02/15 06:50:22;;;;;;;8.55;5.22;;;10.80;66.00;;;;;;6222144;28;20034;-69
2022/02/15 06:53:47;;;;;;;6.80;4.35;;;10.80;66.00;;;;;;6208618;28;20041;-68
2022/02/15 06:57:17;;;;;;;19.48;7.55;;;10.70;66.00;;;;;;6237755;28;20034;-68
2022/02/15 07:00:18;;;;;;;13.77;5.90;;;10.70;65.90;;;;;;6221888;28;20479;-69
2022/02/15 07:03:19;;;;;;;8.55;4.15;;;10.70;66.10;;;;;;6220934;28;20095;-69
2022/02/15 07:06:20;;;;;;;8.98;4.80;;;10.60;66.30;;;;;;6216843;28;20065;-68
2022/02/15 07:09:22;;;;;;;8.48;5.05;;;10.60;66.40;;;;;;6213838;28;20029;-70
2022/02/15 07:12:48;;;;;;;8.55;4.75;;;10.60;66.60;;;;;;6219850;28;20044;-69
2022/02/15 07:16:03;;;;;;;7.75;4.18;;;10.50;66.50;;;;;;6222997;28;20102;-69
2022/02/15 07:19:05;;;;;;;6.68;3.92;;;10.50;66.50;;;;;;6204969;28;20042;-69
2022/02/15 07:22:36;;;;;;;6.57;3.58;;;10.50;66.40;;;;;;6221819;28;20374;-69
2022/02/15 07:25:57;;;;;;;7.90;3.72;;;10.50;66.40;;;;;;6205657;28;20112;-69
2022/02/15 07:29:21;;;;;;;7.20;3.63;;;10.60;66.40;;;;;;6212395;28;20467;-70
2022/02/15 07:32:40;;;;;;;6.32;2.97;;;10.60;66.40;;;;;;6232739;28;20049;-70
2022/02/15 07:35:41;;;;;;;8.32;3.95;;;10.60;66.30;;;;;;6228303;28;20080;-69
2022/02/15 07:38:43;;;;;;;4.53;2.80;;;10.60;66.10;;;;;;6245367;28;20174;-69
2022/02/15 07:42:27;;;;;;;8.63;3.80;;;10.60;66.10;;;;;;6228748;28;20080;-69
2022/02/15 07:45:29;;;;;;;5.80;3.25;;;10.70;66.10;;;;;;6225484;28;20061;-70
2022/02/15 07:48:30;;;;;;;3.92;2.38;;;10.70;65.90;;;;;;6246852;28;20106;-69
2022/02/15 07:51:31;;;;;;;9.65;2.95;;;10.70;65.90;;;;;;6247071;28;20140;-69
2022/02/15 07:54:32;;;;;;;9.77;3.58;;;10.70;65.80;;;;;;6246714;28;20454;-69
2022/02/15 07:57:33;;;;;;;7.43;3.75;;;10.70;65.80;;;;;;6245218;28;20106;-69
2022/02/15 08:00:36;;;;;;;5.07;2.80;;;10.80;65.80;;;;;;6232702;28;20115;-71
2022/02/15 08:03:38;;;;;;;5.25;3.13;;;10.90;65.70;;;;;;6225456;28;20037;-69
2022/02/15 08:06:42;;;;;;;6.25;3.28;;;11.00;65.60;;;;;;6235116;28;20038;-69
2022/02/15 08:09:43;;;;;;;11.55;3.80;;;11.00;65.40;;;;;;6220715;28;20551;-69
2022/02/15 08:12:53;;;;;;;3.30;1.77;;;11.10;65.30;;;;;;6220232;28;20033;-69
2022/02/15 08:15:54;;;;;;;8.15;2.90;;;11.20;65.00;;;;;;6220953;28;20041;-68
2022/02/15 08:18:55;;;;;;;6.03;3.65;;;11.30;64.60;;;;;;6235997;28;20467;-68
2022/02/15 08:22:23;;;;;;;7.43;3.58;;;11.30;64.30;;;;;;6217463;28;20037;-68
2022/02/15 08:25:24;;;;;;;8.98;4.40;;;11.40;64.30;;;;;;6226312;28;20374;-68
2022/02/15 08:28:25;;;;;;;11.25;4.30;;;11.40;64.10;;;;;;6236111;28;20390;-68
2022/02/15 08:31:26;;;;;;;9.45;3.50;;;11.40;63.90;;;;;;6220508;28;20030;-68
2022/02/15 08:34:27;;;;;;;8.30;3.67;;;11.40;64.10;;;;;;6216591;28;20041;-69
2022/02/15 08:37:28;;;;;;;6.93;2.75;;;11.40;64.30;;;;;;6219746;28;20044;-69
2022/02/15 08:40:29;;;;;;;5.38;3.08;;;11.50;64.40;;;;;;6220834;28;20129;-69
2022/02/15 08:43:31;;;;;;;5.38;2.10;;;11.50;64.20;;;;;;6220882;28;20053;-69
2022/02/15 08:46:33;;;;;;;3.33;1.02;;;11.70;64.00;;;;;;6219632;28;20048;-70
2022/02/15 08:49:38;;;;;;;3.15;0.95;;;11.80;63.40;;;;;;6219149;28;20038;-69
2022/02/15 08:52:39;;;;;;;5.72;2.55;;;11.80;62.60;;;;;;6220625;28;20042;-69
2022/02/15 08:55:40;;;;;;;3.80;2.17;;;12.00;62.10;;;;;;6220285;28;20049;-69
2022/02/15 08:58:41;;;;;;;5.47;2.58;;;12.10;61.90;;;;;;6220570;28;20136;-68
2022/02/15 09:02:14;;;;;;;3.10;1.95;;;12.30;61.80;;;;;;6216924;28;20038;-69
2022/02/15 09:05:15;;;;;;;4.75;1.30;;;12.40;61.30;;;;;;6216833;28;20342;-70
2022/02/15 09:08:16;;;;;;;2.33;0.70;;;12.60;60.70;;;;;;6214487;28;20120;-69
2022/02/15 09:11:17;;;;;;;2.15;0.98;;;12.80;59.70;;;;;;6194014;28;20049;-69
2022/02/15 09:14:18;;;;;;;3.95;1.02;;;12.90;59.10;;;;;;6193146;28;20352;-68
2022/02/15 09:17:22;;;;;;;3.08;1.15;;;13.10;58.50;;;;;;6194874;28;20046;-67
2022/02/15 09:20:23;;;;;;;2.92;0.80;;;13.30;58.00;;;;;;6192437;28;20038;-69
2022/02/15 09:23:24;;;;;;;1.60;1.17;;;13.40;57.40;;;;;;6203649;28;20446;-69
2022/02/15 09:26:25;;;;;;;4.47;1.00;;;13.40;56.80;;;;;;6235481;28;20037;-70
2022/02/15 09:29:27;;;;;;;4.88;1.30;;;13.20;56.70;;;;;;6219011;28;20091;-69
2022/02/15 09:32:27;;;;;;;1.48;0.90;;;13.00;56.70;;;;;;6215835;28;20041;-69
2022/02/15 09:35:28;;;;;;;1.10;0.65;;;12.70;56.70;;;;;;6194782;28;20050;-69
2022/02/15 09:38:29;;;;;;;1.00;0.68;;;12.40;57.10;;;;;;6194368;28;20061;-69
2022/02/15 09:42:04;;;;;;;1.00;0.60;;;12.10;57.30;;;;;;6195526;28;20395;-68
2022/02/15 09:45:09;;;;;;;3.47;0.63;;;11.60;58.20;;;;;;6218518;28;20029;-70
2022/02/15 09:48:13;;;;;;;4.00;0.38;;;11.30;59.30;;;;;;6223505;28;20029;-70
2022/02/15 09:51:18;;;;;;;13.70;1.05;;;11.00;59.90;;;;;;6215181;28;20030;-71
2022/02/15 09:54:19;;;;;;;0.50;0.40;;;10.70;60.90;;;;;;6198771;28;20030;-71
2022/02/15 09:57:22;;;;;;;1.25;0.52;;;10.60;61.90;;;;;;6198816;28;20034;-70
2022/02/15 10:00:23;;;;;;;1.75;0.85;;;10.40;62.40;;;;;;6198659;28;20042;-71
2022/02/15 10:03:24;;;;;;;1.38;0.55;;;10.40;62.80;;;;;;6213628;28;20122;-70
2022/02/15 10:06:29;;;;;;;2.60;0.60;;;10.30;63.20;;;;;;6222915;28;20090;-71
2022/02/15 10:09:30;;;;;;;1.25;0.60;;;10.30;63.50;;;;;;6225375;28;20034;-70
2022/02/15 10:12:32;;;;;;;0.60;0.60;;;10.30;63.80;;;;;;6223654;28;20432;-71
2022/02/15 10:15:41;;;;;;;0.80;0.70;;;10.20;63.90;;;;;;6222460;28;20183;-72
2022/02/15 10:18:43;;;;;;;1.00;0.80;;;10.20;64.10;;;;;;6223350;28;20038;-71
2022/02/15 10:22:02;;;;;;;5.82;1.13;;;10.30;64.20;;;;;;6223524;28;20030;-71
2022/02/15 10:25:03;;;;;;;1.55;0.50;;;10.30;64.00;;;;;;6222887;28;20034;-71
2022/02/15 10:28:15;;;;;;;0.70;0.60;;;10.50;63.90;;;;;;6223222;28;20414;-70
2022/02/15 10:31:16;;;;;;;0.38;0.38;;;10.60;63.70;;;;;;6238470;28;20121;-70
2022/02/15 10:34:17;;;;;;;1.83;0.47;;;10.70;62.90;;;;;;6236472;28;20034;-71
2022/02/15 10:37:18;;;;;;;1.00;0.50;;;10.80;62.70;;;;;;6202164;28;20041;-72
2022/02/15 10:40:19;;;;;;;0.47;0.45;;;10.80;62.30;;;;;;6223302;28;20068;-71
2022/02/15 10:43:20;;;;;;;1.95;0.60;;;10.80;62.30;;;;;;6222884;28;20034;-71
2022/02/15 10:46:23;;;;;;;0.50;0.40;;;10.90;62.30;;;;;;6222821;28;20478;-71
2022/02/15 10:49:24;;;;;;;0.95;0.57;;;11.10;61.90;;;;;;6221844;28;20045;-71
2022/02/15 10:52:26;;;;;;;1.70;0.57;;;11.20;61.50;;;;;;6236956;28;20026;-72
2022/02/15 10:55:27;;;;;;;0.90;0.43;;;11.30;60.90;;;;;;6237481;28;20039;-70
2022/02/15 10:58:30;;;;;;;0.40;0.40;;;11.40;60.70;;;;;;6222413;28;20443;-71
2022/02/15 11:01:50;;;;;;;1.02;0.52;;;11.50;60.40;;;;;;6222690;28;20030;-71
2022/02/15 11:04:56;;;;;;;7.07;0.82;;;11.70;59.90;;;;;;6199659;28;20026;-71
2022/02/15 11:07:59;;;;;;;2.55;0.63;;;11.70;59.50;;;;;;6196188;28;20088;-72
2022/02/15 11:11:21;;;;;;;3.47;0.73;;;11.90;59.10;;;;;;6197501;28;20026;-71
2022/02/15 11:14:22;;;;;;;0.93;0.65;;;12.00;58.90;;;;;;6197228;28;20061;-72
2022/02/15 11:17:26;;;;;;;3.25;0.52;;;12.10;58.70;;;;;;6198882;28;20038;-71
2022/02/15 11:20:30;;;;;;;2.00;0.80;;;12.30;58.40;;;;;;6198473;28;20050;-72
2022/02/15 11:23:33;;;;;;;1.55;0.93;;;12.40;58.10;;;;;;6212516;28;20030;-71
2022/02/15 11:26:42;;;;;;;3.80;0.73;;;12.60;57.90;;;;;;6223263;28;20123;-71
2022/02/15 11:29:52;;;;;;;0.93;0.60;;;12.80;57.60;;;;;;6222731;28;20053;-71
2022/02/15 11:32:54;;;;;;;1.52;0.60;;;12.80;57.10;;;;;;6222484;28;20057;-71
2022/02/15 11:35:57;;;;;;;2.40;0.57;;;12.90;57.40;;;;;;6205690;28;20033;-71
2022/02/15 11:39:00;;;;;;;2.90;0.90;;;13.00;56.60;;;;;;6223030;28;20045;-71
2022/02/15 11:42:01;;;;;;;2.08;1.00;;;13.10;56.40;;;;;;6221828;28;20521;-71
2022/02/15 11:45:28;;;;;;;1.23;0.70;;;13.10;56.10;;;;;;6200451;28;20038;-71
2022/02/15 11:48:42;;;;;;;1.60;0.70;;;13.10;56.20;;;;;;6198294;28;20470;-70
2022/02/15 11:51:45;;;;;;;2.65;0.70;;;13.10;55.90;;;;;;6197275;28;20046;-69
2022/02/15 11:54:46;;;;;;;5.95;1.60;;;13.10;56.20;;;;;;6198225;28;20100;-70
2022/02/15 11:57:48;;;;;;;2.83;1.20;;;13.20;56.10;;;;;;6181430;28;20038;-70
2022/02/15 12:01:38;;;;;;;2.88;1.73;;;13.70;55.60;;;;;;6198450;28;20035;-71
2022/02/15 12:04:48;;;;;;;;;;;14.20;54.70;;;;;;6202909;28;20088;-70
2022/02/15 12:07:49;;;;;;;1.77;0.57;;;14.40;53.50;;;;;;6219365;28;19924;-70
2022/02/15 12:10:51;;;;;;;2.88;0.95;;;14.50;52.40;;;;;;6236470;28;20029;-70
2022/02/15 12:13:52;;;;;;;2.25;0.95;;;14.60;52.20;;;;;;6221733;28;20053;-71
2022/02/15 12:16:54;;;;;;;4.63;1.17;;;14.60;52.60;;;;;;6221608;28;20042;-72
2022/02/15 12:19:57;;;;;;;1.27;0.73;;;14.50;53.30;;;;;;6236244;28;20133;-71
2022/02/15 12:22:58;;;;;;;6.10;0.95;;;14.40;53.60;;;;;;6219599;28;20057;-71
2022/02/15 12:26:20;;;;;;;1.85;0.50;;;13.80;54.00;;;;;;6234177;28;20037;-71
2022/02/15 12:29:21;;;;;;;2.28;0.98;;;13.30;54.80;;;;;;6235628;28;20099;-71
2022/02/15 12:32:28;;;;;;;4.75;0.73;;;12.90;55.40;;;;;;6232325;28;20038;-71
2022/02/15 12:35:29;;;;;;;4.65;0.70;;;12.70;55.90;;;;;;6237206;28;20447;-71
2022/02/15 12:38:39;;;;;;;4.10;0.68;;;12.70;56.40;;;;;;6221985;28;20068;-71
2022/02/15 12:41:44;;;;;;;0.30;0.30;;;12.90;56.60;;;;;;6236551;28;20029;-72
2022/02/15 12:45:11;;;;;;;1.75;0.63;;;13.10;55.60;;;;;;6236943;28;20053;-71
2022/02/15 12:48:12;;;;;;;2.47;0.50;;;13.30;54.70;;;;;;6222415;28;20095;-72
2022/02/15 12:51:13;;;;;;;0.98;0.50;;;13.30;54.00;;;;;;6221630;28;20038;-71
2022/02/15 12:54:20;;;;;;;2.33;0.70;;;13.30;53.90;;;;;;6236758;28;20088;-72
2022/02/15 12:57:26;;;;;;;1.45;0.70;;;13.30;54.00;;;;;;6236780;28;20042;-70
2022/02/15 13:00:28;;;;;;;4.22;1.27;;;13.30;54.10;;;;;;6203896;28;20034;-71
2022/02/15 13:03:33;;;;;;;5.55;0.88;;;13.20;54.10;;;;;;6219151;28;20467;-71
2022/02/15 13:06:40;;;;;;;3.28;0.52;;;13.00;54.10;;;;;;6236045;28;20399;-70
2022/02/15 13:09:47;;;;;;;2.50;1.00;;;12.90;54.40;;;;;;6223532;28;20105;-71
2022/02/15 13:12:48;;;;;;;0.40;0.40;;;12.90;54.50;;;;;;6212791;28;20121;-70
2022/02/15 13:15:57;;;;;;;5.07;0.68;;;12.80;54.50;;;;;;6196919;28;20045;-70
2022/02/15 13:19:00;;;;;;;;;;;12.70;54.70;;;;;;6200598;28;20046;-70
2022/02/15 13:22:25;;;;;;;6.07;0.60;;;12.60;55.10;;;;;;6205155;28;20345;-71
2022/02/15 13:25:48;;;;;;;1.35;0.60;;;12.40;55.30;;;;;;6226207;28;20061;-70
2022/02/15 13:28:48;;;;;;;1.95;1.08;;;12.30;55.70;;;;;;6224846;28;20053;-71
2022/02/15 13:31:51;;;;;;;3.95;0.85;;;12.10;56.00;;;;;;6240113;28;20038;-70
2022/02/15 13:34:52;;;;;;;0.65;0.45;;;12.00;56.30;;;;;;6241464;28;20033;-71
2022/02/15 13:37:57;;;;;;;3.35;1.08;;;12.00;56.60;;;;;;6226057;28;20053;-71
2022/02/15 13:41:24;;;;;;;4.68;0.47;;;12.00;56.80;;;;;;6225012;28;20423;-71
2022/02/15 13:44:27;;;;;;;3.40;0.43;;;12.10;56.80;;;;;;6202597;28;20483;-70
2022/02/15 13:47:27;;;;;;;37.53;2.47;;;12.20;56.70;;;;;;6201234;28;20050;-71
2022/02/15 13:50:29;;;;;;;1.02;0.57;;;12.20;56.70;;;;;;6200744;28;20046;-72
2022/02/15 13:53:30;;;;;;;1.80;0.70;;;12.20;56.50;;;;;;6201512;28;20035;-69
2022/02/15 13:56:34;;;;;;;1.95;0.98;;;12.20;56.20;;;;;;6200064;28;20040;-71
2022/02/15 13:59:36;;;;;;;3.88;0.40;;;12.20;56.30;;;;;;6228101;28;20108;-70
2022/02/15 14:02:42;;;;;;;2.45;0.55;;;12.20;56.30;;;;;;6222995;28;20351;-71
2022/02/15 14:05:43;;;;;;;2.45;0.68;;;12.10;56.20;;;;;;6223537;28;20038;-71
2022/02/15 14:08:45;;;;;;;0.57;0.45;;;12.10;56.20;;;;;;6207409;28;20430;-71
2022/02/15 14:11:46;;;;;;;0.90;0.65;;;12.10;56.20;;;;;;6224768;28;20423;-71
2022/02/15 14:14:47;;;;;;;0.70;0.60;;;12.20;56.20;;;;;;6225013;28;20038;-72
2022/02/15 14:17:49;;;;;;;1.00;0.50;;;12.20;55.90;;;;;;6223526;28;20125;-71
2022/02/15 14:21:14;;;;;;;2.28;0.55;;;12.20;55.60;;;;;;6224290;28;20451;-70
2022/02/15 14:24:15;;;;;;;2.53;0.95;;;12.20;55.50;;;;;;6221117;28;20038;-70
2022/02/15 14:27:16;;;;;;;0.47;0.38;;;12.10;55.50;;;;;;6218853;28;20038;-71
2022/02/15 14:30:19;;;;;;;5.00;0.85;;;12.00;55.80;;;;;;6222874;28;20057;-70
2022/02/15 14:33:20;;;;;;;1.15;0.70;;;11.70;56.10;;;;;;6221240;28;20396;-70
2022/02/15 14:36:24;;;;;;;1.85;0.70;;;11.50;56.30;;;;;;6205724;28;20033;-70
2022/02/15 14:39:25;;;;;;;1.30;0.80;;;11.20;56.80;;;;;;6223292;28;20042;-71
2022/02/15 14:42:26;;;;;;;4.75;0.55;;;11.00;57.50;;;;;;6221296;28;20113;-71
2022/02/15 14:45:27;;;;;;;3.03;1.00;;;10.80;58.10;;;;;;6221808;28;20034;-71
2022/02/15 14:48:29;;;;;;;1.55;0.75;;;10.70;58.40;;;;;;6238041;28;20064;-70
2022/02/15 14:51:29;;;;;;;0.68;0.60;;;10.60;58.60;;;;;;6221456;28;20350;-69
2022/02/15 14:54:30;;;;;;;2.17;0.80;;;10.60;58.80;;;;;;6222952;28;20109;-71
2022/02/15 14:57:31;;;;;;;4.00;0.75;;;10.70;59.10;;;;;;6237411;28;20034;-70
2022/02/15 15:01:07;;;;;;;3.05;0.90;;;10.80;59.20;;;;;;6237855;28;20129;-71
2022/02/15 15:04:08;;;;;;;2.85;1.00;;;10.90;59.10;;;;;;6218442;28;20030;-70
2022/02/15 15:07:08;;;;;;;4.80;1.02;;;11.10;59.00;;;;;;6219810;28;20099;-70
2022/02/15 15:10:12;;;;;;;1.60;0.77;;;11.20;58.80;;;;;;6222860;28;20041;-71
2022/02/15 15:13:13;;;;;;;1.30;1.00;;;11.40;58.60;;;;;;6221870;28;20133;-71
2022/02/15 15:16:15;;;;;;;1.52;0.52;;;11.50;58.30;;;;;;6221903;28;20092;-71
2022/02/15 15:19:16;;;;;;;1.92;0.82;;;11.70;58.20;;;;;;6237158;28;20046;-70
2022/02/15 15:22:17;;;;;;;2.05;0.90;;;11.80;58.00;;;;;;6220830;28;20067;-71
2022/02/15 15:25:19;;;;;;;1.60;0.90;;;11.80;57.80;;;;;;6220850;28;20030;-71
2022/02/15 15:28:20;;;;;;;5.38;0.93;;;11.80;57.70;;;;;;6237459;28;20030;-71
2022/02/15 15:31:20;;;;;;;2.42;0.90;;;11.80;57.60;;;;;;6220428;28;20411;-70
2022/02/15 15:34:21;;;;;;;3.72;1.00;;;11.80;57.60;;;;;;6219961;28;20181;-70
2022/02/15 15:37:22;;;;;;;4.63;0.88;;;11.70;57.50;;;;;;6221802;28;20070;-70
2022/02/15 15:40:58;;;;;;;3.08;1.10;;;11.70;57.40;;;;;;6219926;28;20098;-71
2022/02/15 15:43:58;;;;;;;2.65;0.63;;;11.70;57.20;;;;;;6193593;28;20049;-70
2022/02/15 15:46:59;;;;;;;2.33;0.80;;;11.70;56.90;;;;;;6196482;28;20379;-71
2022/02/15 15:50:00;;;;;;;2.03;0.80;;;11.60;56.60;;;;;;6196026;28;20054;-70
2022/02/15 15:53:01;;;;;;;2.90;0.98;;;11.60;56.60;;;;;;6195934;28;20329;-71
2022/02/15 15:56:02;;;;;;;1.42;0.82;;;11.60;56.60;;;;;;6194737;28;20475;-71
2022/02/15 15:59:04;;;;;;;0.85;0.70;;;11.60;56.60;;;;;;6195878;28;20061;-71
2022/02/15 16:02:05;;;;;;;1.10;0.60;;;11.70;56.80;;;;;;6201285;28;20447;-71
2022/02/15 16:05:06;;;;;;;1.73;0.80;;;11.80;56.80;;;;;;6236636;28;20052;-72
2022/02/15 16:08:07;;;;;;;1.90;1.13;;;11.80;56.70;;;;;;6220816;28;20118;-71